SWA931 KPVD-KDCA
Flight info
| Callsign | SWA931 |
|---|---|
| Flight time | 1h 7m |
| Altitude | 34000 |
| Route | JUMPR RIFLE Q167 ZIZZI KNUKK ATR LAFLN DEALE3 |
| Aircraft | B737/M-SDE2E3FGHIRWXY/LB1 |
Departure
| Time | 2026-04-23 02:15 |
|---|---|
| Airport | Rhode Island T. F. Green International Airport (KPVD) |
Arrival
| Time | 2026-04-23 03:23 |
|---|---|
| Airport | Ronald Reagan Washington National Airport (KDCA) |
| Time | Latitude | Longitude | Altitude | Speed | Heading |
|---|---|---|---|---|---|
| 2026-04-23 01:49 | 41.72800 | -71.43395 | 60 ft | 0 kts | 176° |
| 2026-04-23 02:07 | 41.72820 | -71.43397 | 54 ft | 4 kts | 175° |
| 2026-04-23 02:07 | 41.72846 | -71.43403 | 58 ft | 4 kts | 147° |
| 2026-04-23 02:07 | 41.72854 | -71.43415 | 59 ft | 3 kts | 59° |
| 2026-04-23 02:08 | 41.72838 | -71.43443 | 55 ft | 4 kts | 45° |
| 2026-04-23 02:08 | 41.72831 | -71.43453 | 54 ft | 0 kts | 48° |
| 2026-04-23 02:12 | 41.72833 | -71.43450 | 60 ft | 1 kts | 48° |
| 2026-04-23 02:12 | 41.72839 | -71.43441 | 53 ft | 1 kts | 48° |
| 2026-04-23 02:13 | 41.72847 | -71.43429 | 58 ft | 4 kts | 48° |
| 2026-04-23 02:13 | 41.72871 | -71.43395 | 60 ft | 6 kts | 46° |
| 2026-04-23 02:13 | 41.72902 | -71.43354 | 62 ft | 7 kts | 44° |
| 2026-04-23 02:13 | 41.72948 | -71.43304 | 59 ft | 11 kts | 27° |
| 2026-04-23 02:14 | 41.73025 | -71.43266 | 57 ft | 12 kts | 20° |
| 2026-04-23 02:14 | 41.73103 | -71.43225 | 55 ft | 12 kts | 30° |
| 2026-04-23 02:14 | 41.73085 | -71.43133 | 61 ft | 19 kts | 144° |
| 2026-04-23 02:14 | 41.72754 | -71.42781 | 49 ft | 102 kts | 142° |
| 2026-04-23 02:15 | 41.71190 | -71.41151 | 1209 ft | 142 kts | 151° |
| 2026-04-23 02:15 | 41.70268 | -71.40716 | 2095 ft | 144 kts | 170° |
| 2026-04-23 02:15 | 41.69251 | -71.40316 | 2645 ft | 170 kts | 167° |
| 2026-04-23 02:16 | 41.67981 | -71.39805 | 2987 ft | 203 kts | 167° |
| 2026-04-23 02:16 | 41.66523 | -71.39235 | 3311 ft | 229 kts | 167° |
| 2026-04-23 02:16 | 41.64919 | -71.38624 | 3631 ft | 254 kts | 168° |
| 2026-04-23 02:16 | 41.63256 | -71.38001 | 4142 ft | 257 kts | 167° |
| 2026-04-23 02:17 | 41.61483 | -71.37315 | 4007 ft | 269 kts | 166° |
| 2026-04-23 02:17 | 41.59683 | -71.36612 | 3987 ft | 269 kts | 166° |
| 2026-04-23 02:17 | 41.57895 | -71.35909 | 3991 ft | 266 kts | 166° |
| 2026-04-23 02:17 | 41.56129 | -71.35212 | 3989 ft | 264 kts | 166° |
| 2026-04-23 02:18 | 41.54364 | -71.34514 | 3993 ft | 264 kts | 166° |
| 2026-04-23 02:18 | 41.52574 | -71.33921 | 4116 ft | 268 kts | 172° |
| 2026-04-23 02:18 | 41.50715 | -71.33485 | 4961 ft | 275 kts | 173° |
| 2026-04-23 02:18 | 41.48805 | -71.33045 | 5985 ft | 281 kts | 172° |
| 2026-04-23 02:19 | 41.46869 | -71.32580 | 7002 ft | 285 kts | 172° |
| 2026-04-23 02:19 | 41.44899 | -71.32089 | 7962 ft | 291 kts | 172° |
| 2026-04-23 02:19 | 41.42887 | -71.31573 | 8917 ft | 298 kts | 173° |
| 2026-04-23 02:19 | 41.40828 | -71.31036 | 9657 ft | 304 kts | 173° |
| 2026-04-23 02:20 | 41.38739 | -71.30484 | 9974 ft | 308 kts | 173° |
| 2026-04-23 02:20 | 41.36606 | -71.29916 | 10346 ft | 316 kts | 173° |
| 2026-04-23 02:20 | 41.34443 | -71.29338 | 11306 ft | 318 kts | 173° |
| 2026-04-23 02:20 | 41.32267 | -71.28755 | 12241 ft | 321 kts | 174° |
| 2026-04-23 02:21 | 41.30055 | -71.28163 | 13115 ft | 328 kts | 174° |
| 2026-04-23 02:21 | 41.27797 | -71.27559 | 14005 ft | 334 kts | 174° |
| 2026-04-23 02:21 | 41.25505 | -71.26947 | 14842 ft | 339 kts | 174° |
| 2026-04-23 02:21 | 41.23174 | -71.26325 | 15698 ft | 344 kts | 174° |
| 2026-04-23 02:22 | 41.20806 | -71.25806 | 16533 ft | 344 kts | 186° |
| 2026-04-23 02:22 | 41.18508 | -71.26321 | 17371 ft | 330 kts | 211° |
| 2026-04-23 02:22 | 41.16607 | -71.27879 | 18295 ft | 316 kts | 230° |
| 2026-04-23 02:22 | 41.15207 | -71.30051 | 19075 ft | 305 kts | 247° |
| 2026-04-23 02:23 | 41.14221 | -71.32529 | 19897 ft | 304 kts | 252° |
| 2026-04-23 02:23 | 41.13321 | -71.35075 | 20713 ft | 306 kts | 253° |
| 2026-04-23 02:23 | 41.12435 | -71.37658 | 21524 ft | 309 kts | 253° |
| 2026-04-23 02:23 | 41.11541 | -71.40267 | 22337 ft | 313 kts | 253° |
| 2026-04-23 02:24 | 41.10631 | -71.42901 | 23146 ft | 316 kts | 253° |
| 2026-04-23 02:24 | 41.09704 | -71.45564 | 23897 ft | 320 kts | 253° |
| 2026-04-23 02:24 | 41.08761 | -71.48256 | 24512 ft | 325 kts | 253° |
| 2026-04-23 02:24 | 41.07798 | -71.50990 | 25140 ft | 329 kts | 253° |
| 2026-04-23 02:25 | 41.06823 | -71.53748 | 25795 ft | 333 kts | 253° |
| 2026-04-23 02:25 | 41.05832 | -71.56541 | 26412 ft | 337 kts | 254° |
| 2026-04-23 02:25 | 41.04827 | -71.59369 | 26999 ft | 342 kts | 254° |
| 2026-04-23 02:25 | 41.03808 | -71.62233 | 27602 ft | 346 kts | 255° |
| 2026-04-23 02:26 | 41.02773 | -71.65136 | 28182 ft | 351 kts | 255° |
| 2026-04-23 02:26 | 41.01726 | -71.68070 | 28773 ft | 355 kts | 255° |
| 2026-04-23 02:26 | 41.00666 | -71.71035 | 29373 ft | 358 kts | 255° |
| 2026-04-23 02:26 | 40.99594 | -71.74027 | 29965 ft | 361 kts | 255° |
| 2026-04-23 02:27 | 40.98511 | -71.77047 | 30465 ft | 365 kts | 255° |
| 2026-04-23 02:27 | 40.97417 | -71.80099 | 30887 ft | 369 kts | 255° |
| 2026-04-23 02:27 | 40.96308 | -71.83189 | 31289 ft | 374 kts | 255° |
| 2026-04-23 02:27 | 40.95184 | -71.86322 | 31544 ft | 381 kts | 255° |
| 2026-04-23 02:28 | 40.94425 | -71.88438 | 31687 ft | 387 kts | 255° |
| 2026-04-23 02:28 | 40.93261 | -71.91677 | 31970 ft | 393 kts | 255° |
| 2026-04-23 02:28 | 40.92078 | -71.94956 | 32313 ft | 397 kts | 255° |
| 2026-04-23 02:28 | 40.90885 | -71.98252 | 32758 ft | 399 kts | 255° |
| 2026-04-23 02:29 | 40.89683 | -72.01571 | 33112 ft | 402 kts | 255° |
| 2026-04-23 02:29 | 40.88469 | -72.04927 | 33368 ft | 407 kts | 255° |
| 2026-04-23 02:29 | 40.87237 | -72.08327 | 33664 ft | 411 kts | 255° |
| 2026-04-23 02:29 | 40.85998 | -72.11742 | 34026 ft | 413 kts | 255° |
| 2026-04-23 02:30 | 40.84746 | -72.15190 | 34058 ft | 420 kts | 255° |
| 2026-04-23 02:30 | 40.82221 | -72.22114 | 34068 ft | 414 kts | 255° |
| 2026-04-23 02:31 | 40.79733 | -72.28922 | 34040 ft | 413 kts | 255° |
| 2026-04-23 02:31 | 40.77229 | -72.35794 | 34069 ft | 419 kts | 255° |
| 2026-04-23 02:32 | 40.74683 | -72.42747 | 34078 ft | 423 kts | 255° |
| 2026-04-23 02:32 | 40.72109 | -72.49755 | 34066 ft | 423 kts | 255° |
| 2026-04-23 02:33 | 40.69439 | -72.56607 | 34058 ft | 426 kts | 247° |
| 2026-04-23 02:33 | 40.67628 | -72.59765 | 34067 ft | 439 kts | 238° |
| 2026-04-23 02:33 | 40.65404 | -72.62597 | 34047 ft | 449 kts | 231° |
| 2026-04-23 02:34 | 40.60635 | -72.67990 | 34056 ft | 454 kts | 230° |
| 2026-04-23 02:34 | 40.55822 | -72.73381 | 34068 ft | 456 kts | 230° |
| 2026-04-23 02:35 | 40.51007 | -72.78860 | 34084 ft | 463 kts | 231° |
| 2026-04-23 02:35 | 40.46087 | -72.84500 | 34052 ft | 474 kts | 230° |
| 2026-04-23 02:36 | 40.41107 | -72.90179 | 34052 ft | 474 kts | 230° |
| 2026-04-23 02:36 | 40.36128 | -72.95845 | 34041 ft | 474 kts | 230° |
| 2026-04-23 02:37 | 40.31147 | -73.01509 | 34053 ft | 474 kts | 230° |
| 2026-04-23 02:37 | 40.26167 | -73.07161 | 34056 ft | 473 kts | 229° |
| 2026-04-23 02:38 | 40.21181 | -73.12804 | 34059 ft | 474 kts | 229° |
| 2026-04-23 02:38 | 40.16290 | -73.18322 | 34063 ft | 474 kts | 229° |
| 2026-04-23 02:39 | 40.11301 | -73.23946 | 34043 ft | 474 kts | 229° |
| 2026-04-23 02:39 | 40.06304 | -73.29561 | 34058 ft | 473 kts | 229° |
| 2026-04-23 02:40 | 40.01313 | -73.35151 | 34056 ft | 473 kts | 229° |
| 2026-04-23 02:40 | 39.96321 | -73.40734 | 34061 ft | 472 kts | 229° |
| 2026-04-23 02:41 | 39.91335 | -73.46304 | 34051 ft | 472 kts | 228° |
| 2026-04-23 02:41 | 39.86353 | -73.51857 | 34060 ft | 471 kts | 228° |
| 2026-04-23 02:42 | 39.81370 | -73.57398 | 34062 ft | 471 kts | 228° |
| 2026-04-23 02:42 | 39.76388 | -73.62926 | 34072 ft | 471 kts | 228° |
| 2026-04-23 02:43 | 39.71407 | -73.68445 | 34049 ft | 469 kts | 228° |
| 2026-04-23 02:43 | 39.66475 | -73.73899 | 34053 ft | 469 kts | 228° |
| 2026-04-23 02:44 | 39.61512 | -73.79380 | 34058 ft | 468 kts | 228° |
| 2026-04-23 02:44 | 39.56553 | -73.84844 | 34057 ft | 468 kts | 228° |
| 2026-04-23 02:45 | 39.51589 | -73.90304 | 34055 ft | 468 kts | 228° |
| 2026-04-23 02:45 | 39.46628 | -73.95751 | 34058 ft | 467 kts | 228° |
| 2026-04-23 02:46 | 39.41668 | -74.01186 | 34035 ft | 467 kts | 228° |
| 2026-04-23 02:46 | 39.36706 | -74.06615 | 34034 ft | 467 kts | 227° |
| 2026-04-23 02:47 | 39.31750 | -74.12036 | 34044 ft | 467 kts | 227° |
| 2026-04-23 02:47 | 39.26799 | -74.17443 | 34049 ft | 466 kts | 227° |
| 2026-04-23 02:48 | 39.21842 | -74.22846 | 34042 ft | 466 kts | 227° |
| 2026-04-23 02:48 | 39.16885 | -74.28239 | 34020 ft | 466 kts | 227° |
| 2026-04-23 02:49 | 39.11932 | -74.33617 | 34040 ft | 466 kts | 227° |
| 2026-04-23 02:49 | 39.06976 | -74.38989 | 34032 ft | 465 kts | 227° |
| 2026-04-23 02:50 | 39.02026 | -74.44345 | 34042 ft | 465 kts | 227° |
| 2026-04-23 02:50 | 38.97115 | -74.49725 | 34029 ft | 460 kts | 232° |
| 2026-04-23 02:50 | 38.95098 | -74.52839 | 34059 ft | 448 kts | 244° |
| 2026-04-23 02:51 | 38.93589 | -74.56272 | 33991 ft | 435 kts | 253° |
| 2026-04-23 02:51 | 38.92606 | -74.59873 | 33557 ft | 419 kts | 264° |
| 2026-04-23 02:51 | 38.91938 | -74.63485 | 33064 ft | 413 kts | 264° |
| 2026-04-23 02:51 | 38.91283 | -74.67053 | 32607 ft | 408 kts | 264° |
| 2026-04-23 02:52 | 38.90611 | -74.70576 | 32115 ft | 405 kts | 264° |
| 2026-04-23 02:52 | 38.89925 | -74.74070 | 31582 ft | 403 kts | 264° |
| 2026-04-23 02:52 | 38.89241 | -74.77547 | 31086 ft | 400 kts | 264° |
| 2026-04-23 02:52 | 38.88585 | -74.80986 | 30649 ft | 395 kts | 265° |
| 2026-04-23 02:53 | 38.87944 | -74.84405 | 30191 ft | 392 kts | 265° |
| 2026-04-23 02:53 | 38.87311 | -74.87792 | 29669 ft | 389 kts | 265° |
| 2026-04-23 02:53 | 38.86683 | -74.91148 | 29164 ft | 385 kts | 265° |
| 2026-04-23 02:53 | 38.86058 | -74.94466 | 28685 ft | 380 kts | 264° |
| 2026-04-23 02:54 | 38.85439 | -74.97745 | 28212 ft | 376 kts | 264° |
| 2026-04-23 02:54 | 38.84826 | -75.00985 | 27714 ft | 372 kts | 264° |
| 2026-04-23 02:54 | 38.84218 | -75.04197 | 27251 ft | 368 kts | 264° |
| 2026-04-23 02:54 | 38.83614 | -75.07379 | 26736 ft | 365 kts | 263° |
| 2026-04-23 02:55 | 38.83016 | -75.10529 | 26300 ft | 362 kts | 263° |
| 2026-04-23 02:55 | 38.82422 | -75.13652 | 25841 ft | 359 kts | 263° |
| 2026-04-23 02:55 | 38.81830 | -75.16753 | 25376 ft | 357 kts | 262° |
| 2026-04-23 02:55 | 38.81240 | -75.19837 | 24930 ft | 355 kts | 262° |
| 2026-04-23 02:56 | 38.80806 | -75.22926 | 24427 ft | 350 kts | 269° |
| 2026-04-23 02:56 | 38.80597 | -75.26020 | 23948 ft | 348 kts | 271° |
| 2026-04-23 02:56 | 38.80434 | -75.29107 | 23445 ft | 347 kts | 271° |
| 2026-04-23 02:56 | 38.80273 | -75.32184 | 22925 ft | 344 kts | 270° |
| 2026-04-23 02:57 | 38.80102 | -75.35232 | 22456 ft | 341 kts | 270° |
| 2026-04-23 02:57 | 38.79923 | -75.38249 | 21994 ft | 338 kts | 270° |
| 2026-04-23 02:57 | 38.79738 | -75.41236 | 21547 ft | 334 kts | 270° |
| 2026-04-23 02:57 | 38.79553 | -75.44191 | 21080 ft | 332 kts | 270° |
| 2026-04-23 02:58 | 38.79366 | -75.47122 | 20641 ft | 328 kts | 270° |
| 2026-04-23 02:58 | 38.79182 | -75.49995 | 20198 ft | 326 kts | 270° |
| 2026-04-23 02:58 | 38.78997 | -75.52877 | 19760 ft | 324 kts | 270° |
| 2026-04-23 02:58 | 38.78812 | -75.55745 | 19317 ft | 322 kts | 270° |
| 2026-04-23 02:59 | 38.78629 | -75.58589 | 18889 ft | 320 kts | 270° |
| 2026-04-23 02:59 | 38.78446 | -75.61421 | 18454 ft | 318 kts | 270° |
| 2026-04-23 02:59 | 38.78263 | -75.64237 | 17973 ft | 316 kts | 270° |
| 2026-04-23 02:59 | 38.78082 | -75.67033 | 17502 ft | 314 kts | 270° |
| 2026-04-23 03:00 | 38.77900 | -75.69809 | 17056 ft | 311 kts | 270° |
| 2026-04-23 03:00 | 38.77720 | -75.72560 | 16613 ft | 309 kts | 269° |
| 2026-04-23 03:00 | 38.77541 | -75.75287 | 16177 ft | 306 kts | 269° |
| 2026-04-23 03:00 | 38.77362 | -75.78000 | 15742 ft | 304 kts | 269° |
| 2026-04-23 03:01 | 38.77184 | -75.80689 | 15308 ft | 302 kts | 269° |
| 2026-04-23 03:01 | 38.77007 | -75.83360 | 14889 ft | 300 kts | 269° |
| 2026-04-23 03:01 | 38.76829 | -75.86026 | 14455 ft | 299 kts | 269° |
| 2026-04-23 03:01 | 38.76652 | -75.88673 | 14040 ft | 298 kts | 269° |
| 2026-04-23 03:02 | 38.76476 | -75.91312 | 13587 ft | 297 kts | 269° |
| 2026-04-23 03:02 | 38.76299 | -75.93940 | 13116 ft | 295 kts | 269° |
| 2026-04-23 03:02 | 38.76122 | -75.96554 | 12671 ft | 294 kts | 269° |
| 2026-04-23 03:02 | 38.75947 | -75.99152 | 12234 ft | 292 kts | 269° |
| 2026-04-23 03:03 | 38.75771 | -76.01731 | 11792 ft | 290 kts | 269° |
| 2026-04-23 03:03 | 38.75595 | -76.04303 | 11358 ft | 289 kts | 269° |
| 2026-04-23 03:03 | 38.75446 | -76.06854 | 11011 ft | 283 kts | 274° |
| 2026-04-23 03:03 | 38.75568 | -76.09308 | 10947 ft | 275 kts | 280° |
| 2026-04-23 03:04 | 38.75816 | -76.11782 | 10690 ft | 286 kts | 281° |
| 2026-04-23 03:04 | 38.76090 | -76.14322 | 10506 ft | 289 kts | 281° |
| 2026-04-23 03:04 | 38.76358 | -76.16875 | 10319 ft | 288 kts | 281° |
| 2026-04-23 03:04 | 38.76612 | -76.19385 | 10133 ft | 279 kts | 281° |
| 2026-04-23 03:05 | 38.76848 | -76.21801 | 9966 ft | 268 kts | 281° |
| 2026-04-23 03:05 | 38.77071 | -76.24133 | 9797 ft | 259 kts | 281° |
| 2026-04-23 03:05 | 38.77285 | -76.26388 | 9642 ft | 253 kts | 281° |
| 2026-04-23 03:05 | 38.77497 | -76.28626 | 9504 ft | 253 kts | 281° |
| 2026-04-23 03:06 | 38.77710 | -76.30875 | 9361 ft | 255 kts | 281° |
| 2026-04-23 03:06 | 38.77923 | -76.33145 | 9212 ft | 258 kts | 281° |
| 2026-04-23 03:06 | 38.78136 | -76.35432 | 9059 ft | 259 kts | 281° |
| 2026-04-23 03:06 | 38.78347 | -76.37716 | 8909 ft | 258 kts | 280° |
| 2026-04-23 03:07 | 38.78557 | -76.39998 | 8748 ft | 258 kts | 280° |
| 2026-04-23 03:07 | 38.78766 | -76.42278 | 8600 ft | 257 kts | 280° |
| 2026-04-23 03:07 | 38.78975 | -76.44551 | 8450 ft | 256 kts | 280° |
| 2026-04-23 03:07 | 38.79182 | -76.46818 | 8301 ft | 256 kts | 280° |
| 2026-04-23 03:08 | 38.79388 | -76.49080 | 8154 ft | 255 kts | 280° |
| 2026-04-23 03:08 | 38.79593 | -76.51331 | 8004 ft | 254 kts | 280° |
| 2026-04-23 03:08 | 38.79792 | -76.53575 | 7855 ft | 254 kts | 278° |
| 2026-04-23 03:08 | 38.79898 | -76.55832 | 7691 ft | 254 kts | 275° |
| 2026-04-23 03:09 | 38.79967 | -76.58089 | 7554 ft | 253 kts | 275° |
| 2026-04-23 03:09 | 38.80033 | -76.60344 | 7412 ft | 253 kts | 275° |
| 2026-04-23 03:09 | 38.80100 | -76.62591 | 7266 ft | 252 kts | 275° |
| 2026-04-23 03:09 | 38.80171 | -76.64837 | 7119 ft | 252 kts | 275° |
| 2026-04-23 03:10 | 38.80243 | -76.67083 | 6966 ft | 252 kts | 275° |
| 2026-04-23 03:10 | 38.80316 | -76.69326 | 6823 ft | 252 kts | 275° |
| 2026-04-23 03:10 | 38.80389 | -76.71566 | 6671 ft | 252 kts | 275° |
| 2026-04-23 03:10 | 38.80437 | -76.73051 | 6579 ft | 251 kts | 275° |
| 2026-04-23 03:11 | 38.80510 | -76.75287 | 6431 ft | 251 kts | 275° |
| 2026-04-23 03:11 | 38.80655 | -76.77510 | 6267 ft | 249 kts | 287° |
| 2026-04-23 03:11 | 38.81400 | -76.79506 | 6127 ft | 243 kts | 306° |
| 2026-04-23 03:11 | 38.82401 | -76.81160 | 5976 ft | 234 kts | 309° |
| 2026-04-23 03:12 | 38.83416 | -76.82739 | 5841 ft | 225 kts | 309° |
| 2026-04-23 03:12 | 38.84388 | -76.84265 | 5694 ft | 217 kts | 309° |
| 2026-04-23 03:12 | 38.85317 | -76.85741 | 5574 ft | 209 kts | 308° |
| 2026-04-23 03:12 | 38.86224 | -76.87191 | 5452 ft | 209 kts | 308° |
| 2026-04-23 03:13 | 38.87150 | -76.88677 | 5348 ft | 212 kts | 308° |
| 2026-04-23 03:13 | 38.88098 | -76.90143 | 5242 ft | 215 kts | 313° |
| 2026-04-23 03:13 | 38.89156 | -76.91523 | 5120 ft | 217 kts | 315° |
| 2026-04-23 03:13 | 38.90211 | -76.92854 | 5029 ft | 214 kts | 315° |
| 2026-04-23 03:14 | 38.91273 | -76.94192 | 5009 ft | 210 kts | 315° |
| 2026-04-23 03:14 | 38.92314 | -76.95509 | 5000 ft | 210 kts | 314° |
| 2026-04-23 03:14 | 38.93382 | -76.96865 | 4686 ft | 218 kts | 314° |
| 2026-04-23 03:14 | 38.94450 | -76.98224 | 4491 ft | 214 kts | 314° |
| 2026-04-23 03:15 | 38.95491 | -76.99552 | 4352 ft | 208 kts | 314° |
| 2026-04-23 03:15 | 38.96509 | -77.00853 | 4222 ft | 206 kts | 314° |
| 2026-04-23 03:15 | 38.97527 | -77.02155 | 4110 ft | 206 kts | 314° |
| 2026-04-23 03:15 | 38.98541 | -77.03454 | 3995 ft | 206 kts | 314° |
| 2026-04-23 03:16 | 38.99561 | -77.04759 | 3875 ft | 207 kts | 314° |
| 2026-04-23 03:16 | 39.00585 | -77.06073 | 3755 ft | 208 kts | 314° |
| 2026-04-23 03:16 | 39.02628 | -77.08693 | 3531 ft | 206 kts | 314° |
| 2026-04-23 03:17 | 39.03642 | -77.09996 | 3522 ft | 205 kts | 314° |
| 2026-04-23 03:17 | 39.04639 | -77.11323 | 3389 ft | 206 kts | 304° |
| 2026-04-23 03:17 | 39.05027 | -77.13036 | 3406 ft | 205 kts | 268° |
| 2026-04-23 03:17 | 39.04625 | -77.14778 | 3383 ft | 213 kts | 243° |
| 2026-04-23 03:18 | 39.03562 | -77.16154 | 3275 ft | 226 kts | 213° |
| 2026-04-23 03:18 | 39.02025 | -77.16659 | 3159 ft | 235 kts | 183° |
| 2026-04-23 03:18 | 39.00397 | -77.16363 | 3047 ft | 236 kts | 172° |
| 2026-04-23 03:18 | 38.98803 | -77.15946 | 2878 ft | 230 kts | 172° |
| 2026-04-23 03:19 | 38.97276 | -77.15545 | 2756 ft | 218 kts | 172° |
| 2026-04-23 03:19 | 38.95926 | -77.14731 | 2541 ft | 218 kts | 141° |
| 2026-04-23 03:19 | 38.94778 | -77.13433 | 2272 ft | 220 kts | 141° |
| 2026-04-23 03:19 | 38.93637 | -77.12153 | 1988 ft | 215 kts | 142° |
| 2026-04-23 03:20 | 38.92431 | -77.11134 | 1702 ft | 200 kts | 158° |
| 2026-04-23 03:20 | 38.91245 | -77.10358 | 1463 ft | 180 kts | 153° |
| 2026-04-23 03:20 | 38.90448 | -77.09232 | 1216 ft | 164 kts | 110° |
| 2026-04-23 03:20 | 38.90341 | -77.07858 | 942 ft | 153 kts | 97° |
| 2026-04-23 03:21 | 38.90007 | -77.06595 | 810 ft | 145 kts | 124° |
| 2026-04-23 03:21 | 38.89258 | -77.05784 | 601 ft | 139 kts | 151° |
| 2026-04-23 03:21 | 38.88475 | -77.05103 | 482 ft | 135 kts | 140° |
| 2026-04-23 03:21 | 38.87762 | -77.04329 | 341 ft | 133 kts | 148° |
| 2026-04-23 03:22 | 38.86912 | -77.03957 | 199 ft | 131 kts | 171° |
| 2026-04-23 03:22 | 38.86013 | -77.03860 | 41 ft | 128 kts | 175° |
| 2026-04-23 03:22 | 38.85212 | -77.03781 | 23 ft | 99 kts | 175° |
| 2026-04-23 03:22 | 38.84673 | -77.03727 | 24 ft | 59 kts | 175° |
| 2026-04-23 03:23 | 38.84424 | -77.03724 | 24 ft | 24 kts | 207° |
| 2026-04-23 03:23 | 38.84389 | -77.03809 | 26 ft | 5 kts | 266° |
| 2026-04-23 03:23 | 38.84415 | -77.03836 | 25 ft | 5 kts | 354° |
| 2026-04-23 03:23 | 38.84452 | -77.03844 | 25 ft | 5 kts | 352° |
| 2026-04-23 03:24 | 38.84490 | -77.03849 | 23 ft | 5 kts | 354° |
| 2026-04-23 03:24 | 38.84526 | -77.03853 | 26 ft | 5 kts | 355° |
| 2026-04-23 03:24 | 38.84578 | -77.03858 | 24 ft | 10 kts | 356° |
| 2026-04-23 03:24 | 38.84645 | -77.03865 | 24 ft | 10 kts | 355° |
| 2026-04-23 03:25 | 38.84701 | -77.03870 | 24 ft | 2 kts | 355° |
| 2026-04-23 03:25 | 38.84707 | -77.03871 | 27 ft | 2 kts | 353° |
| 2026-04-23 03:25 | 38.84708 | -77.03871 | 27 ft | 0 kts | 353° |
| 2026-04-23 03:27 | 38.84720 | -77.03880 | 25 ft | 5 kts | 322° |
| 2026-04-23 03:27 | 38.84746 | -77.03935 | 25 ft | 8 kts | 287° |
| 2026-04-23 03:27 | 38.84715 | -77.03987 | 24 ft | 8 kts | 209° |
| 2026-04-23 03:27 | 38.84666 | -77.04018 | 23 ft | 8 kts | 204° |
| 2026-04-23 03:28 | 38.84618 | -77.04047 | 26 ft | 7 kts | 208° |
| 2026-04-23 03:28 | 38.84596 | -77.04100 | 25 ft | 0 kts | 254° |
| 2026-04-23 03:29 | 38.84593 | -77.04112 | 25 ft | 2 kts | 251° |
| 2026-04-23 03:29 | 38.84587 | -77.04141 | 24 ft | 5 kts | 256° |
| 2026-04-23 03:29 | 38.84576 | -77.04201 | 26 ft | 8 kts | 256° |
| 2026-04-23 03:29 | 38.84564 | -77.04286 | 23 ft | 11 kts | 270° |
| 2026-04-23 03:30 | 38.84594 | -77.04359 | 24 ft | 7 kts | 317° |
| 2026-04-23 03:30 | 38.84629 | -77.04379 | 25 ft | 2 kts | 47° |
| 2026-04-23 03:30 | 38.84635 | -77.04361 | 24 ft | 3 kts | 70° |
| 2026-04-23 03:30 | 38.84643 | -77.04339 | 25 ft | 2 kts | 61° |
| 2026-04-23 03:31 | 38.84649 | -77.04326 | 23 ft | 0 kts | 61° |